sensor_id;sensor_type;location;lat;lon;timestamp;P1;durP1;ratioP1;P2;durP2;ratioP2
48052;SDS011;33824;51.600;5.718;2023-12-07T00:01:05;16.38;;;6.80;;
48052;SDS011;33824;51.600;5.718;2023-12-07T00:03:31;15.32;;;7.00;;
48052;SDS011;33824;51.600;5.718;2023-12-07T00:05:57;11.02;;;6.50;;
48052;SDS011;33824;51.600;5.718;2023-12-07T00:08:23;12.52;;;6.38;;
48052;SDS011;33824;51.600;5.718;2023-12-07T00:10:48;18.05;;;7.85;;
48052;SDS011;33824;51.600;5.718;2023-12-07T00:13:14;12.52;;;6.97;;
48052;SDS011;33824;51.600;5.718;2023-12-07T00:15:40;14.57;;;6.50;;
48052;SDS011;33824;51.600;5.718;2023-12-07T00:18:05;9.68;;;6.07;;
48052;SDS011;33824;51.600;5.718;2023-12-07T00:20:31;13.70;;;6.28;;
48052;SDS011;33824;51.600;5.718;2023-12-07T00:22:57;11.25;;;6.55;;
48052;SDS011;33824;51.600;5.718;2023-12-07T00:25:22;13.60;;;6.60;;
48052;SDS011;33824;51.600;5.718;2023-12-07T00:27:50;14.40;;;7.32;;
48052;SDS011;33824;51.600;5.718;2023-12-07T00:30:15;13.45;;;6.93;;
48052;SDS011;33824;51.600;5.718;2023-12-07T00:32:41;16.02;;;7.45;;
48052;SDS011;33824;51.600;5.718;2023-12-07T00:35:10;12.30;;;7.07;;
48052;SDS011;33824;51.600;5.718;2023-12-07T00:37:36;14.88;;;7.65;;
48052;SDS011;33824;51.600;5.718;2023-12-07T00:40:02;16.13;;;7.80;;
48052;SDS011;33824;51.600;5.718;2023-12-07T00:42:28;14.80;;;7.95;;
48052;SDS011;33824;51.600;5.718;2023-12-07T00:44:54;17.08;;;7.60;;
48052;SDS011;33824;51.600;5.718;2023-12-07T00:47:20;13.73;;;7.40;;
48052;SDS011;33824;51.600;5.718;2023-12-07T00:49:46;15.60;;;7.63;;
48052;SDS011;33824;51.600;5.718;2023-12-07T00:52:12;18.48;;;7.45;;
48052;SDS011;33824;51.600;5.718;2023-12-07T00:54:38;12.57;;;7.18;;
48052;SDS011;33824;51.600;5.718;2023-12-07T00:57:04;14.73;;;6.78;;
48052;SDS011;33824;51.600;5.718;2023-12-07T00:59:31;28.45;;;7.30;;
48052;SDS011;33824;51.600;5.718;2023-12-07T01:02:17;13.10;;;7.25;;
48052;SDS011;33824;51.600;5.718;2023-12-07T01:04:42;16.35;;;7.25;;
48052;SDS011;33824;51.600;5.718;2023-12-07T01:07:09;15.07;;;7.18;;
48052;SDS011;33824;51.600;5.718;2023-12-07T01:09:34;26.45;;;7.82;;
48052;SDS011;33824;51.600;5.718;2023-12-07T01:12:01;17.20;;;7.68;;
48052;SDS011;33824;51.600;5.718;2023-12-07T01:14:27;40.10;;;8.07;;
48052;SDS011;33824;51.600;5.718;2023-12-07T01:16:52;32.28;;;7.88;;
48052;SDS011;33824;51.600;5.718;2023-12-07T01:19:18;71.72;;;7.47;;
48052;SDS011;33824;51.600;5.718;2023-12-07T01:21:43;16.20;;;7.70;;
48052;SDS011;33824;51.600;5.718;2023-12-07T01:24:09;13.65;;;7.63;;
48052;SDS011;33824;51.600;5.718;2023-12-07T01:26:34;13.20;;;7.43;;
48052;SDS011;33824;51.600;5.718;2023-12-07T01:29:01;17.17;;;8.00;;
48052;SDS011;33824;51.600;5.718;2023-12-07T01:31:26;16.38;;;8.00;;
48052;SDS011;33824;51.600;5.718;2023-12-07T01:33:52;15.73;;;7.93;;
48052;SDS011;33824;51.600;5.718;2023-12-07T01:36:20;16.83;;;7.97;;
48052;SDS011;33824;51.600;5.718;2023-12-07T01:38:46;16.20;;;8.43;;
48052;SDS011;33824;51.600;5.718;2023-12-07T01:41:12;20.67;;;7.78;;
48052;SDS011;33824;51.600;5.718;2023-12-07T01:43:37;13.38;;;7.75;;
48052;SDS011;33824;51.600;5.718;2023-12-07T01:48:35;14.00;;;7.35;;
48052;SDS011;33824;51.600;5.718;2023-12-07T01:51:01;18.27;;;8.82;;
48052;SDS011;33824;51.600;5.718;2023-12-07T01:53:26;13.90;;;7.47;;
48052;SDS011;33824;51.600;5.718;2023-12-07T01:55:53;19.70;;;8.43;;
48052;SDS011;33824;51.600;5.718;2023-12-07T01:58:19;165.35;;;11.32;;
48052;SDS011;33824;51.600;5.718;2023-12-07T02:00:46;132.23;;;10.82;;
48052;SDS011;33824;51.600;5.718;2023-12-07T02:03:12;55.20;;;8.73;;
48052;SDS011;33824;51.600;5.718;2023-12-07T02:05:41;25.50;;;8.98;;
48052;SDS011;33824;51.600;5.718;2023-12-07T02:08:08;68.63;;;9.82;;
48052;SDS011;33824;51.600;5.718;2023-12-07T02:10:33;81.47;;;9.85;;
48052;SDS011;33824;51.600;5.718;2023-12-07T02:13:00;54.83;;;9.48;;
48052;SDS011;33824;51.600;5.718;2023-12-07T02:15:26;68.10;;;10.02;;
48052;SDS011;33824;51.600;5.718;2023-12-07T02:20:28;64.45;;;9.20;;
48052;SDS011;33824;51.600;5.718;2023-12-07T02:23:03;60.10;;;9.25;;
48052;SDS011;33824;51.600;5.718;2023-12-07T02:25:31;80.88;;;9.20;;
48052;SDS011;33824;51.600;5.718;2023-12-07T02:28:02;43.08;;;9.10;;
48052;SDS011;33824;51.600;5.718;2023-12-07T02:30:27;61.95;;;8.77;;
48052;SDS011;33824;51.600;5.718;2023-12-07T02:32:53;78.63;;;9.40;;
48052;SDS011;33824;51.600;5.718;2023-12-07T02:35:19;62.80;;;8.70;;
48052;SDS011;33824;51.600;5.718;2023-12-07T02:37:46;64.43;;;8.90;;
48052;SDS011;33824;51.600;5.718;2023-12-07T02:40:16;52.42;;;8.90;;
48052;SDS011;33824;51.600;5.718;2023-12-07T02:42:43;36.95;;;7.43;;
48052;SDS011;33824;51.600;5.718;2023-12-07T02:45:09;40.95;;;8.20;;
48052;SDS011;33824;51.600;5.718;2023-12-07T02:47:36;38.65;;;8.68;;
48052;SDS011;33824;51.600;5.718;2023-12-07T02:50:02;33.67;;;7.90;;
48052;SDS011;33824;51.600;5.718;2023-12-07T02:52:29;46.05;;;9.20;;
48052;SDS011;33824;51.600;5.718;2023-12-07T02:54:55;63.35;;;9.13;;
48052;SDS011;33824;51.600;5.718;2023-12-07T02:57:21;45.92;;;9.40;;
48052;SDS011;33824;51.600;5.718;2023-12-07T02:59:46;37.63;;;8.55;;
48052;SDS011;33824;51.600;5.718;2023-12-07T03:02:12;31.17;;;9.00;;
48052;SDS011;33824;51.600;5.718;2023-12-07T03:04:37;31.20;;;9.40;;
48052;SDS011;33824;51.600;5.718;2023-12-07T03:07:03;44.42;;;8.52;;
48052;SDS011;33824;51.600;5.718;2023-12-07T03:09:28;18.67;;;8.55;;
48052;SDS011;33824;51.600;5.718;2023-12-07T03:11:56;47.63;;;8.82;;
48052;SDS011;33824;51.600;5.718;2023-12-07T03:14:21;100.68;;;9.98;;
48052;SDS011;33824;51.600;5.718;2023-12-07T03:16:47;66.07;;;9.10;;
48052;SDS011;33824;51.600;5.718;2023-12-07T03:19:12;87.22;;;8.80;;
48052;SDS011;33824;51.600;5.718;2023-12-07T03:21:39;73.38;;;8.70;;
48052;SDS011;33824;51.600;5.718;2023-12-07T03:24:06;79.85;;;9.88;;
48052;SDS011;33824;51.600;5.718;2023-12-07T03:26:33;56.47;;;8.98;;
48052;SDS011;33824;51.600;5.718;2023-12-07T03:28:59;41.97;;;8.20;;
48052;SDS011;33824;51.600;5.718;2023-12-07T03:31:24;32.92;;;8.00;;
48052;SDS011;33824;51.600;5.718;2023-12-07T03:33:50;43.85;;;8.77;;
48052;SDS011;33824;51.600;5.718;2023-12-07T03:36:15;46.90;;;7.88;;
48052;SDS011;33824;51.600;5.718;2023-12-07T03:38:42;64.13;;;8.63;;
48052;SDS011;33824;51.600;5.718;2023-12-07T03:41:08;63.90;;;8.43;;
48052;SDS011;33824;51.600;5.718;2023-12-07T03:43:33;58.00;;;8.57;;
48052;SDS011;33824;51.600;5.718;2023-12-07T03:45:59;72.20;;;8.30;;
48052;SDS011;33824;51.600;5.718;2023-12-07T03:48:24;59.45;;;8.63;;
48052;SDS011;33824;51.600;5.718;2023-12-07T03:50:50;64.22;;;9.13;;
48052;SDS011;33824;51.600;5.718;2023-12-07T03:53:15;102.13;;;8.73;;
48052;SDS011;33824;51.600;5.718;2023-12-07T03:55:41;88.63;;;8.65;;
48052;SDS011;33824;51.600;5.718;2023-12-07T03:58:07;127.32;;;9.40;;
48052;SDS011;33824;51.600;5.718;2023-12-07T04:00:32;112.97;;;8.98;;
48052;SDS011;33824;51.600;5.718;2023-12-07T04:02:58;88.45;;;9.10;;
48052;SDS011;33824;51.600;5.718;2023-12-07T04:05:23;84.93;;;8.77;;
48052;SDS011;33824;51.600;5.718;2023-12-07T04:07:49;149.90;;;9.25;;
48052;SDS011;33824;51.600;5.718;2023-12-07T04:10:15;114.00;;;9.18;;
48052;SDS011;33824;51.600;5.718;2023-12-07T04:12:40;92.43;;;8.63;;
48052;SDS011;33824;51.600;5.718;2023-12-07T04:15:07;149.95;;;9.90;;
48052;SDS011;33824;51.600;5.718;2023-12-07T04:17:32;163.02;;;10.32;;
48052;SDS011;33824;51.600;5.718;2023-12-07T04:19:58;84.60;;;8.93;;
48052;SDS011;33824;51.600;5.718;2023-12-07T04:22:24;103.63;;;10.15;;
48052;SDS011;33824;51.600;5.718;2023-12-07T04:24:49;107.68;;;9.15;;
48052;SDS011;33824;51.600;5.718;2023-12-07T04:27:15;139.88;;;9.93;;
48052;SDS011;33824;51.600;5.718;2023-12-07T04:29:41;118.63;;;9.25;;
48052;SDS011;33824;51.600;5.718;2023-12-07T04:32:06;107.85;;;9.65;;
48052;SDS011;33824;51.600;5.718;2023-12-07T04:34:33;75.50;;;9.77;;
48052;SDS011;33824;51.600;5.718;2023-12-07T04:36:59;99.60;;;9.15;;
48052;SDS011;33824;51.600;5.718;2023-12-07T04:39:24;55.22;;;8.80;;
48052;SDS011;33824;51.600;5.718;2023-12-07T04:41:50;76.22;;;9.73;;
48052;SDS011;33824;51.600;5.718;2023-12-07T04:44:16;55.75;;;9.35;;
48052;SDS011;33824;51.600;5.718;2023-12-07T04:46:42;68.72;;;9.00;;
48052;SDS011;33824;51.600;5.718;2023-12-07T04:49:08;53.15;;;9.40;;
48052;SDS011;33824;51.600;5.718;2023-12-07T04:51:33;46.70;;;8.65;;
48052;SDS011;33824;51.600;5.718;2023-12-07T04:53:59;70.20;;;8.50;;
48052;SDS011;33824;51.600;5.718;2023-12-07T04:56:25;67.20;;;9.32;;
48052;SDS011;33824;51.600;5.718;2023-12-07T04:58:51;62.17;;;9.57;;
48052;SDS011;33824;51.600;5.718;2023-12-07T05:01:16;97.65;;;9.88;;
48052;SDS011;33824;51.600;5.718;2023-12-07T05:03:44;98.63;;;9.90;;
48052;SDS011;33824;51.600;5.718;2023-12-07T05:06:10;79.70;;;9.27;;
48052;SDS011;33824;51.600;5.718;2023-12-07T05:08:38;66.78;;;9.32;;
48052;SDS011;33824;51.600;5.718;2023-12-07T05:11:04;57.85;;;9.57;;
48052;SDS011;33824;51.600;5.718;2023-12-07T05:13:30;66.57;;;9.43;;
48052;SDS011;33824;51.600;5.718;2023-12-07T05:15:57;75.88;;;9.55;;
48052;SDS011;33824;51.600;5.718;2023-12-07T05:18:23;61.47;;;9.10;;
48052;SDS011;33824;51.600;5.718;2023-12-07T05:20:48;59.30;;;9.20;;
48052;SDS011;33824;51.600;5.718;2023-12-07T05:23:15;87.05;;;9.07;;
48052;SDS011;33824;51.600;5.718;2023-12-07T05:25:40;66.47;;;8.88;;
48052;SDS011;33824;51.600;5.718;2023-12-07T05:28:06;97.60;;;9.15;;
48052;SDS011;33824;51.600;5.718;2023-12-07T05:30:31;81.70;;;9.27;;
48052;SDS011;33824;51.600;5.718;2023-12-07T05:32:57;57.58;;;8.75;;
48052;SDS011;33824;51.600;5.718;2023-12-07T05:35:23;61.60;;;8.73;;
48052;SDS011;33824;51.600;5.718;2023-12-07T05:37:48;97.97;;;9.85;;
48052;SDS011;33824;51.600;5.718;2023-12-07T05:40:14;106.97;;;10.13;;
48052;SDS011;33824;51.600;5.718;2023-12-07T05:42:41;138.60;;;9.90;;
48052;SDS011;33824;51.600;5.718;2023-12-07T05:45:07;101.50;;;8.77;;
48052;SDS011;33824;51.600;5.718;2023-12-07T05:47:35;101.78;;;8.63;;
48052;SDS011;33824;51.600;5.718;2023-12-07T05:50:00;53.20;;;8.05;;
48052;SDS011;33824;51.600;5.718;2023-12-07T05:52:28;102.75;;;9.02;;
48052;SDS011;33824;51.600;5.718;2023-12-07T05:54:54;138.82;;;8.25;;
48052;SDS011;33824;51.600;5.718;2023-12-07T05:57:20;151.73;;;9.23;;
48052;SDS011;33824;51.600;5.718;2023-12-07T05:59:45;82.20;;;8.43;;
48052;SDS011;33824;51.600;5.718;2023-12-07T06:02:11;119.57;;;8.35;;
48052;SDS011;33824;51.600;5.718;2023-12-07T06:04:36;125.85;;;7.32;;
48052;SDS011;33824;51.600;5.718;2023-12-07T06:07:03;129.32;;;7.55;;
48052;SDS011;33824;51.600;5.718;2023-12-07T06:09:29;131.05;;;7.97;;
48052;SDS011;33824;51.600;5.718;2023-12-07T06:11:55;192.02;;;8.82;;
48052;SDS011;33824;51.600;5.718;2023-12-07T06:14:20;125.65;;;8.48;;
48052;SDS011;33824;51.600;5.718;2023-12-07T06:16:48;48.55;;;5.80;;
48052;SDS011;33824;51.600;5.718;2023-12-07T06:19:14;119.65;;;7.50;;
48052;SDS011;33824;51.600;5.718;2023-12-07T06:21:40;74.40;;;6.63;;
48052;SDS011;33824;51.600;5.718;2023-12-07T06:24:05;101.00;;;7.60;;
48052;SDS011;33824;51.600;5.718;2023-12-07T06:26:32;124.50;;;7.68;;
48052;SDS011;33824;51.600;5.718;2023-12-07T06:28:58;66.63;;;5.55;;
48052;SDS011;33824;51.600;5.718;2023-12-07T06:31:24;92.35;;;6.95;;
48052;SDS011;33824;51.600;5.718;2023-12-07T06:33:49;140.65;;;7.60;;
48052;SDS011;33824;51.600;5.718;2023-12-07T06:36:22;106.35;;;8.10;;
48052;SDS011;33824;51.600;5.718;2023-12-07T06:38:48;108.75;;;7.43;;
48052;SDS011;33824;51.600;5.718;2023-12-07T06:41:14;99.35;;;7.80;;
48052;SDS011;33824;51.600;5.718;2023-12-07T06:43:41;135.68;;;7.57;;
48052;SDS011;33824;51.600;5.718;2023-12-07T06:46:07;151.52;;;9.07;;
48052;SDS011;33824;51.600;5.718;2023-12-07T06:48:32;96.15;;;7.32;;
48052;SDS011;33824;51.600;5.718;2023-12-07T06:50:58;85.70;;;7.43;;
48052;SDS011;33824;51.600;5.718;2023-12-07T06:53:23;166.52;;;8.48;;
48052;SDS011;33824;51.600;5.718;2023-12-07T06:55:49;127.97;;;6.97;;
48052;SDS011;33824;51.600;5.718;2023-12-07T06:58:14;131.18;;;8.27;;
48052;SDS011;33824;51.600;5.718;2023-12-07T07:00:40;105.97;;;7.13;;
48052;SDS011;33824;51.600;5.718;2023-12-07T07:03:05;73.65;;;6.90;;
48052;SDS011;33824;51.600;5.718;2023-12-07T07:05:31;126.50;;;8.13;;
48052;SDS011;33824;51.600;5.718;2023-12-07T07:07:57;68.75;;;7.10;;
48052;SDS011;33824;51.600;5.718;2023-12-07T07:10:22;77.22;;;7.20;;
48052;SDS011;33824;51.600;5.718;2023-12-07T07:12:48;116.82;;;7.25;;
48052;SDS011;33824;51.600;5.718;2023-12-07T07:15:15;105.15;;;6.97;;
48052;SDS011;33824;51.600;5.718;2023-12-07T07:17:41;110.13;;;7.25;;
48052;SDS011;33824;51.600;5.718;2023-12-07T07:20:07;90.03;;;6.75;;
48052;SDS011;33824;51.600;5.718;2023-12-07T07:22:33;92.28;;;8.00;;
48052;SDS011;33824;51.600;5.718;2023-12-07T07:24:59;97.72;;;6.88;;
48052;SDS011;33824;51.600;5.718;2023-12-07T07:27:26;100.57;;;7.35;;
48052;SDS011;33824;51.600;5.718;2023-12-07T07:29:51;120.32;;;8.80;;
48052;SDS011;33824;51.600;5.718;2023-12-07T07:32:17;80.55;;;7.93;;
48052;SDS011;33824;51.600;5.718;2023-12-07T07:34:42;86.35;;;7.95;;
48052;SDS011;33824;51.600;5.718;2023-12-07T07:37:08;72.13;;;7.15;;
48052;SDS011;33824;51.600;5.718;2023-12-07T07:39:34;73.05;;;6.82;;
48052;SDS011;33824;51.600;5.718;2023-12-07T07:42:00;91.18;;;6.80;;
48052;SDS011;33824;51.600;5.718;2023-12-07T07:44:25;125.82;;;7.28;;
48052;SDS011;33824;51.600;5.718;2023-12-07T07:46:51;78.38;;;7.43;;
48052;SDS011;33824;51.600;5.718;2023-12-07T07:49:16;59.80;;;6.43;;
48052;SDS011;33824;51.600;5.718;2023-12-07T07:51:42;74.57;;;7.70;;
48052;SDS011;33824;51.600;5.718;2023-12-07T07:54:08;75.95;;;6.85;;
48052;SDS011;33824;51.600;5.718;2023-12-07T07:56:33;43.78;;;6.75;;
48052;SDS011;33824;51.600;5.718;2023-12-07T07:58:59;71.35;;;6.47;;
48052;SDS011;33824;51.600;5.718;2023-12-07T08:01:25;71.68;;;7.15;;
48052;SDS011;33824;51.600;5.718;2023-12-07T08:03:51;45.78;;;5.80;;
48052;SDS011;33824;51.600;5.718;2023-12-07T08:06:17;75.30;;;7.40;;
48052;SDS011;33824;51.600;5.718;2023-12-07T08:08:44;52.63;;;6.97;;
48052;SDS011;33824;51.600;5.718;2023-12-07T08:11:09;49.08;;;6.30;;
48052;SDS011;33824;51.600;5.718;2023-12-07T08:13:35;52.03;;;7.47;;
48052;SDS011;33824;51.600;5.718;2023-12-07T08:16:01;63.72;;;6.97;;
48052;SDS011;33824;51.600;5.718;2023-12-07T08:18:27;41.65;;;6.60;;
48052;SDS011;33824;51.600;5.718;2023-12-07T08:20:52;36.72;;;6.53;;
48052;SDS011;33824;51.600;5.718;2023-12-07T08:23:18;64.80;;;7.35;;
48052;SDS011;33824;51.600;5.718;2023-12-07T08:25:43;78.57;;;7.05;;
48052;SDS011;33824;51.600;5.718;2023-12-07T08:28:09;69.55;;;7.88;;
48052;SDS011;33824;51.600;5.718;2023-12-07T08:30:35;51.30;;;7.07;;
48052;SDS011;33824;51.600;5.718;2023-12-07T08:33:01;62.25;;;7.13;;
48052;SDS011;33824;51.600;5.718;2023-12-07T08:35:27;79.88;;;8.57;;
48052;SDS011;33824;51.600;5.718;2023-12-07T08:37:53;75.72;;;8.35;;
48052;SDS011;33824;51.600;5.718;2023-12-07T08:40:18;44.28;;;6.97;;
48052;SDS011;33824;51.600;5.718;2023-12-07T08:42:44;40.80;;;7.18;;
48052;SDS011;33824;51.600;5.718;2023-12-07T08:45:11;54.95;;;8.65;;
48052;SDS011;33824;51.600;5.718;2023-12-07T08:47:39;82.82;;;9.18;;
48052;SDS011;33824;51.600;5.718;2023-12-07T08:50:05;43.72;;;8.30;;
48052;SDS011;33824;51.600;5.718;2023-12-07T08:52:33;52.67;;;8.00;;
48052;SDS011;33824;51.600;5.718;2023-12-07T08:54:59;40.15;;;8.95;;
48052;SDS011;33824;51.600;5.718;2023-12-07T08:57:25;59.67;;;7.82;;
48052;SDS011;33824;51.600;5.718;2023-12-07T08:59:50;60.70;;;8.60;;
48052;SDS011;33824;51.600;5.718;2023-12-07T09:02:16;57.42;;;8.77;;
48052;SDS011;33824;51.600;5.718;2023-12-07T09:04:42;41.75;;;8.98;;
48052;SDS011;33824;51.600;5.718;2023-12-07T09:07:08;48.00;;;9.18;;
48052;SDS011;33824;51.600;5.718;2023-12-07T09:09:34;40.22;;;9.07;;
48052;SDS011;33824;51.600;5.718;2023-12-07T09:12:00;21.85;;;9.23;;
48052;SDS011;33824;51.600;5.718;2023-12-07T09:14:26;19.42;;;9.02;;
48052;SDS011;33824;51.600;5.718;2023-12-07T09:16:52;25.73;;;10.40;;
48052;SDS011;33824;51.600;5.718;2023-12-07T09:19:17;22.02;;;9.55;;
48052;SDS011;33824;51.600;5.718;2023-12-07T09:21:43;21.50;;;9.45;;
48052;SDS011;33824;51.600;5.718;2023-12-07T09:24:08;21.15;;;9.93;;
48052;SDS011;33824;51.600;5.718;2023-12-07T09:26:34;19.35;;;8.95;;
48052;SDS011;33824;51.600;5.718;2023-12-07T09:29:00;20.60;;;9.70;;
48052;SDS011;33824;51.600;5.718;2023-12-07T09:31:26;23.83;;;10.32;;
48052;SDS011;33824;51.600;5.718;2023-12-07T09:33:52;26.15;;;11.13;;
48052;SDS011;33824;51.600;5.718;2023-12-07T09:36:19;23.38;;;10.48;;
48052;SDS011;33824;51.600;5.718;2023-12-07T09:38:47;23.20;;;10.07;;
48052;SDS011;33824;51.600;5.718;2023-12-07T09:41:13;23.00;;;10.05;;
48052;SDS011;33824;51.600;5.718;2023-12-07T09:43:38;19.15;;;8.90;;
48052;SDS011;33824;51.600;5.718;2023-12-07T09:46:05;24.58;;;10.90;;
48052;SDS011;33824;51.600;5.718;2023-12-07T09:48:31;23.88;;;10.43;;
48052;SDS011;33824;51.600;5.718;2023-12-07T09:50:57;22.00;;;10.45;;
48052;SDS011;33824;51.600;5.718;2023-12-07T09:53:25;22.30;;;10.18;;
48052;SDS011;33824;51.600;5.718;2023-12-07T09:55:54;23.67;;;10.20;;
48052;SDS011;33824;51.600;5.718;2023-12-07T09:58:19;21.48;;;9.48;;
48052;SDS011;33824;51.600;5.718;2023-12-07T10:00:48;23.33;;;9.38;;
48052;SDS011;33824;51.600;5.718;2023-12-07T10:03:21;20.38;;;9.02;;
48052;SDS011;33824;51.600;5.718;2023-12-07T10:05:57;17.13;;;8.30;;
48052;SDS011;33824;51.600;5.718;2023-12-07T10:08:28;20.15;;;9.18;;
48052;SDS011;33824;51.600;5.718;2023-12-07T10:11:02;17.25;;;8.60;;
48052;SDS011;33824;51.600;5.718;2023-12-07T10:13:32;21.92;;;8.73;;
48052;SDS011;33824;51.600;5.718;2023-12-07T10:16:13;18.80;;;9.00;;
48052;SDS011;33824;51.600;5.718;2023-12-07T10:18:44;18.38;;;9.35;;
48052;SDS011;33824;51.600;5.718;2023-12-07T10:21:10;19.30;;;8.00;;
48052;SDS011;33824;51.600;5.718;2023-12-07T10:23:36;17.25;;;8.98;;
48052;SDS011;33824;51.600;5.718;2023-12-07T10:26:04;17.95;;;7.88;;
48052;SDS011;33824;51.600;5.718;2023-12-07T10:28:30;16.52;;;8.27;;
48052;SDS011;33824;51.600;5.718;2023-12-07T10:30:56;14.93;;;7.22;;
48052;SDS011;33824;51.600;5.718;2023-12-07T10:33:22;15.95;;;8.18;;
48052;SDS011;33824;51.600;5.718;2023-12-07T10:35:48;14.95;;;8.55;;
48052;SDS011;33824;51.600;5.718;2023-12-07T10:38:16;18.05;;;9.35;;
48052;SDS011;33824;51.600;5.718;2023-12-07T10:40:42;16.60;;;8.80;;
48052;SDS011;33824;51.600;5.718;2023-12-07T10:43:07;19.40;;;8.80;;
48052;SDS011;33824;51.600;5.718;2023-12-07T10:45:34;17.95;;;8.80;;
48052;SDS011;33824;51.600;5.718;2023-12-07T10:48:02;18.95;;;9.18;;
48052;SDS011;33824;51.600;5.718;2023-12-07T10:50:36;17.65;;;9.15;;
48052;SDS011;33824;51.600;5.718;2023-12-07T10:53:50;17.27;;;8.93;;
48052;SDS011;33824;51.600;5.718;2023-12-07T10:56:05;25.58;;;10.27;;
48052;SDS011;33824;51.600;5.718;2023-12-07T10:58:36;17.80;;;9.85;;
48052;SDS011;33824;51.600;5.718;2023-12-07T11:01:04;24.38;;;10.60;;
48052;SDS011;33824;51.600;5.718;2023-12-07T11:03:32;26.13;;;12.27;;
48052;SDS011;33824;51.600;5.718;2023-12-07T11:05:58;19.73;;;10.45;;
48052;SDS011;33824;51.600;5.718;2023-12-07T11:14:03;23.65;;;11.50;;
48052;SDS011;33824;51.600;5.718;2023-12-07T11:16:38;21.63;;;10.75;;
48052;SDS011;33824;51.600;5.718;2023-12-07T11:19:06;23.08;;;11.30;;
48052;SDS011;33824;51.600;5.718;2023-12-07T11:22:13;22.65;;;11.43;;
48052;SDS011;33824;51.600;5.718;2023-12-07T11:24:52;28.38;;;11.90;;
48052;SDS011;33824;51.600;5.718;2023-12-07T11:27:18;22.05;;;10.98;;
48052;SDS011;33824;51.600;5.718;2023-12-07T11:29:43;28.83;;;10.95;;
48052;SDS011;33824;51.600;5.718;2023-12-07T11:32:12;23.75;;;12.05;;
48052;SDS011;33824;51.600;5.718;2023-12-07T11:34:38;21.23;;;10.75;;
48052;SDS011;33824;51.600;5.718;2023-12-07T11:37:08;19.33;;;9.82;;
48052;SDS011;33824;51.600;5.718;2023-12-07T11:39:34;21.70;;;11.00;;
48052;SDS011;33824;51.600;5.718;2023-12-07T11:44:37;22.38;;;11.32;;
48052;SDS011;33824;51.600;5.718;2023-12-07T11:47:04;26.98;;;12.55;;
48052;SDS011;33824;51.600;5.718;2023-12-07T11:49:31;26.52;;;13.77;;
48052;SDS011;33824;51.600;5.718;2023-12-07T11:51:57;24.58;;;12.63;;
48052;SDS011;33824;51.600;5.718;2023-12-07T11:54:24;29.48;;;14.32;;
48052;SDS011;33824;51.600;5.718;2023-12-07T11:56:52;23.85;;;12.48;;
48052;SDS011;33824;51.600;5.718;2023-12-07T11:59:18;26.60;;;14.48;;
48052;SDS011;33824;51.600;5.718;2023-12-07T12:01:47;28.75;;;14.07;;
48052;SDS011;33824;51.600;5.718;2023-12-07T12:04:14;33.70;;;15.25;;
48052;SDS011;33824;51.600;5.718;2023-12-07T12:06:42;34.75;;;16.25;;
48052;SDS011;33824;51.600;5.718;2023-12-07T12:09:14;29.83;;;15.68;;
48052;SDS011;33824;51.600;5.718;2023-12-07T12:14:15;32.78;;;14.93;;
48052;SDS011;33824;51.600;5.718;2023-12-07T12:16:44;41.65;;;17.60;;
48052;SDS011;33824;51.600;5.718;2023-12-07T12:19:11;37.03;;;15.63;;
48052;SDS011;33824;51.600;5.718;2023-12-07T12:21:37;29.98;;;15.30;;
48052;SDS011;33824;51.600;5.718;2023-12-07T12:24:06;28.25;;;14.35;;
48052;SDS011;33824;51.600;5.718;2023-12-07T12:26:35;28.77;;;13.85;;
48052;SDS011;33824;51.600;5.718;2023-12-07T12:29:07;31.05;;;14.50;;
48052;SDS011;33824;51.600;5.718;2023-12-07T12:31:34;33.95;;;15.35;;
48052;SDS011;33824;51.600;5.718;2023-12-07T12:34:00;31.13;;;16.17;;
48052;SDS011;33824;51.600;5.718;2023-12-07T12:36:27;38.90;;;15.70;;
48052;SDS011;33824;51.600;5.718;2023-12-07T12:38:53;37.47;;;17.80;;
48052;SDS011;33824;51.600;5.718;2023-12-07T12:41:19;34.72;;;15.75;;
48052;SDS011;33824;51.600;5.718;2023-12-07T12:43:46;34.38;;;15.85;;
48052;SDS011;33824;51.600;5.718;2023-12-07T12:46:15;39.92;;;16.58;;
48052;SDS011;33824;51.600;5.718;2023-12-07T12:48:56;35.00;;;15.85;;
48052;SDS011;33824;51.600;5.718;2023-12-07T12:51:24;39.85;;;17.33;;
48052;SDS011;33824;51.600;5.718;2023-12-07T12:53:51;33.83;;;15.85;;
48052;SDS011;33824;51.600;5.718;2023-12-07T12:56:18;34.50;;;15.95;;
48052;SDS011;33824;51.600;5.718;2023-12-07T12:58:45;38.88;;;16.30;;
48052;SDS011;33824;51.600;5.718;2023-12-07T13:01:11;35.80;;;15.68;;
48052;SDS011;33824;51.600;5.718;2023-12-07T13:03:37;34.80;;;15.00;;
48052;SDS011;33824;51.600;5.718;2023-12-07T13:06:03;38.58;;;16.45;;
48052;SDS011;33824;51.600;5.718;2023-12-07T13:08:29;36.15;;;15.65;;
48052;SDS011;33824;51.600;5.718;2023-12-07T13:10:54;31.15;;;14.05;;
48052;SDS011;33824;51.600;5.718;2023-12-07T13:13:20;29.63;;;14.05;;
48052;SDS011;33824;51.600;5.718;2023-12-07T13:15:46;28.00;;;12.68;;
48052;SDS011;33824;51.600;5.718;2023-12-07T13:18:11;26.45;;;12.32;;
48052;SDS011;33824;51.600;5.718;2023-12-07T13:20:38;24.35;;;12.55;;
48052;SDS011;33824;51.600;5.718;2023-12-07T13:23:04;26.67;;;12.10;;
48052;SDS011;33824;51.600;5.718;2023-12-07T13:25:30;26.38;;;12.45;;
48052;SDS011;33824;51.600;5.718;2023-12-07T13:27:55;27.00;;;12.55;;
48052;SDS011;33824;51.600;5.718;2023-12-07T13:30:21;29.98;;;12.57;;
48052;SDS011;33824;51.600;5.718;2023-12-07T13:32:46;28.77;;;13.95;;
48052;SDS011;33824;51.600;5.718;2023-12-07T13:35:13;29.85;;;14.50;;
48052;SDS011;33824;51.600;5.718;2023-12-07T13:37:39;25.60;;;12.60;;
48052;SDS011;33824;51.600;5.718;2023-12-07T13:40:04;26.10;;;13.27;;
48052;SDS011;33824;51.600;5.718;2023-12-07T13:42:35;27.95;;;12.45;;
48052;SDS011;33824;51.600;5.718;2023-12-07T13:45:02;26.35;;;13.15;;
48052;SDS011;33824;51.600;5.718;2023-12-07T13:47:28;28.80;;;13.50;;
48052;SDS011;33824;51.600;5.718;2023-12-07T13:49:57;27.00;;;13.48;;
48052;SDS011;33824;51.600;5.718;2023-12-07T13:52:23;28.83;;;14.77;;
48052;SDS011;33824;51.600;5.718;2023-12-07T13:54:49;31.20;;;15.43;;
48052;SDS011;33824;51.600;5.718;2023-12-07T13:57:15;30.15;;;13.95;;
48052;SDS011;33824;51.600;5.718;2023-12-07T13:59:41;34.70;;;17.48;;
48052;SDS011;33824;51.600;5.718;2023-12-07T14:02:06;42.17;;;19.55;;
48052;SDS011;33824;51.600;5.718;2023-12-07T14:04:32;32.28;;;18.75;;
48052;SDS011;33824;51.600;5.718;2023-12-07T14:07:08;31.70;;;15.18;;
48052;SDS011;33824;51.600;5.718;2023-12-07T14:09:35;29.40;;;12.68;;
48052;SDS011;33824;51.600;5.718;2023-12-07T14:12:02;25.65;;;12.95;;
48052;SDS011;33824;51.600;5.718;2023-12-07T14:14:28;27.60;;;12.82;;
48052;SDS011;33824;51.600;5.718;2023-12-07T14:16:54;25.13;;;12.30;;
48052;SDS011;33824;51.600;5.718;2023-12-07T14:19:20;24.55;;;12.43;;
48052;SDS011;33824;51.600;5.718;2023-12-07T14:21:45;28.65;;;12.35;;
48052;SDS011;33824;51.600;5.718;2023-12-07T14:24:12;24.45;;;12.52;;
48052;SDS011;33824;51.600;5.718;2023-12-07T14:26:38;26.52;;;12.25;;
48052;SDS011;33824;51.600;5.718;2023-12-07T14:29:03;21.77;;;11.23;;
48052;SDS011;33824;51.600;5.718;2023-12-07T14:31:29;21.85;;;11.70;;
48052;SDS011;33824;51.600;5.718;2023-12-07T14:33:58;27.38;;;11.60;;
48052;SDS011;33824;51.600;5.718;2023-12-07T14:36:23;20.20;;;10.68;;
48052;SDS011;33824;51.600;5.718;2023-12-07T14:38:49;25.10;;;10.52;;
48052;SDS011;33824;51.600;5.718;2023-12-07T14:41:15;23.15;;;10.90;;